createdAt,value
2023-02-13T00:00:22.254Z,7.82
2023-02-13T00:02:49.236Z,7.86
2023-02-13T00:05:16.264Z,7.89
2023-02-13T00:07:42.994Z,7.96
2023-02-13T00:10:10.145Z,8.01
2023-02-13T00:12:37.287Z,8.01
2023-02-13T00:15:06.864Z,8.02
2023-02-13T00:17:33.786Z,8.05
2023-02-13T00:20:00.781Z,8.06
2023-02-13T00:22:27.797Z,8.03
2023-02-13T00:24:54.462Z,8.01
2023-02-13T00:27:21.355Z,7.97
2023-02-13T00:29:48.178Z,7.90
2023-02-13T00:32:15.368Z,7.81
2023-02-13T00:34:44.244Z,7.77
2023-02-13T00:37:11.174Z,7.75
2023-02-13T00:39:37.845Z,7.73
2023-02-13T00:42:04.955Z,7.72
2023-02-13T00:44:31.820Z,7.72
2023-02-13T00:46:58.605Z,7.74
2023-02-13T00:49:25.452Z,7.72
2023-02-13T00:51:52.262Z,7.70
2023-02-13T00:54:19.034Z,7.71
2023-02-13T00:56:45.792Z,7.73
2023-02-13T00:59:12.625Z,7.75
2023-02-13T01:01:39.431Z,7.75
2023-02-13T01:04:06.538Z,7.69
2023-02-13T01:06:33.285Z,7.64
2023-02-13T01:08:59.984Z,7.63
2023-02-13T01:11:26.829Z,7.60
2023-02-13T01:13:53.538Z,7.60
2023-02-13T01:16:20.371Z,7.61
2023-02-13T01:18:47.218Z,7.62
2023-02-13T01:21:18.576Z,7.59
2023-02-13T01:23:45.703Z,7.56
2023-02-13T01:26:18.122Z,7.51
2023-02-13T01:28:45.426Z,7.46
2023-02-13T01:31:12.230Z,7.42
2023-02-13T01:33:39.147Z,7.39
2023-02-13T01:36:11.358Z,7.38
2023-02-13T01:38:38.436Z,7.34
2023-02-13T01:41:05.396Z,7.31
2023-02-13T01:43:52.457Z,7.26
2023-02-13T01:46:26.423Z,7.19
2023-02-13T01:48:56.304Z,7.13
2023-02-13T01:51:28.980Z,7.08
2023-02-13T01:54:07.142Z,7.04
2023-02-13T01:56:42.323Z,7.01
2023-02-13T01:59:19.420Z,7.00
2023-02-13T02:01:46.656Z,6.96
2023-02-13T02:04:25.711Z,6.95
2023-02-13T02:06:58.849Z,6.92
2023-02-13T02:09:32.851Z,6.90
2023-02-13T02:12:04.873Z,6.88
2023-02-13T02:14:31.896Z,6.88
2023-02-13T02:16:59.012Z,6.86
2023-02-13T02:19:53.830Z,6.87
2023-02-13T02:22:54.369Z,6.87
2023-02-13T02:25:33.298Z,6.86
2023-02-13T02:28:09.114Z,6.86
2023-02-13T02:30:39.240Z,6.84
2023-02-13T02:33:24.761Z,6.83
2023-02-13T02:36:06.699Z,6.86
2023-02-13T02:38:48.594Z,6.85
2023-02-13T02:41:38.896Z,6.84
2023-02-13T02:44:14.223Z,6.83
2023-02-13T02:47:14.873Z,6.84
2023-02-13T02:49:59.957Z,6.83
2023-02-13T02:52:56.080Z,6.83
2023-02-13T02:55:38.448Z,6.84
2023-02-13T02:58:38.130Z,6.86
2023-02-13T03:01:29.002Z,6.86
2023-02-13T03:04:16.582Z,6.84
2023-02-13T03:06:57.847Z,6.81
2023-02-13T03:09:49.312Z,6.81
2023-02-13T03:12:40.571Z,6.79
2023-02-13T03:15:08.631Z,6.78
2023-02-13T03:17:54.785Z,6.78
2023-02-13T03:20:49.224Z,6.78
2023-02-13T03:23:20.618Z,6.76
2023-02-13T03:26:04.413Z,6.75
2023-02-13T03:29:02.948Z,6.73
2023-02-13T03:31:45.319Z,6.73
2023-02-13T03:34:21.318Z,6.75
2023-02-13T03:37:09.030Z,6.76
2023-02-13T03:40:21.660Z,6.76
2023-02-13T03:43:11.177Z,6.77
2023-02-13T03:45:57.354Z,6.78
2023-02-13T03:48:49.963Z,6.79
2023-02-13T03:51:25.114Z,6.79
2023-02-13T03:53:57.599Z,6.78
2023-02-13T03:56:45.389Z,6.77
2023-02-13T03:59:21.833Z,6.81
2023-02-13T04:02:01.045Z,6.83
2023-02-13T04:04:40.475Z,6.84
2023-02-13T04:07:11.859Z,6.88
2023-02-13T04:09:42.808Z,6.88
2023-02-13T04:12:21.628Z,6.91
2023-02-13T04:15:19.900Z,6.93
2023-02-13T04:17:51.198Z,6.92
2023-02-13T04:20:18.856Z,6.92
2023-02-13T04:22:47.402Z,6.92
2023-02-13T04:25:16.161Z,6.95
2023-02-13T04:27:43.303Z,6.97
2023-02-13T04:30:10.658Z,6.98
2023-02-13T04:32:37.360Z,6.96
2023-02-13T04:35:04.220Z,6.94
2023-02-13T04:37:31.000Z,6.93
2023-02-13T04:39:57.769Z,6.91
2023-02-13T04:42:24.568Z,6.89
2023-02-13T04:44:51.352Z,6.90
2023-02-13T04:47:18.264Z,6.91
2023-02-13T04:49:44.990Z,6.90
2023-02-13T04:52:11.816Z,6.90
2023-02-13T04:54:38.520Z,6.91
2023-02-13T04:57:05.219Z,6.92
2023-02-13T04:59:32.031Z,6.96
2023-02-13T05:01:59.407Z,7.03
2023-02-13T05:04:26.238Z,7.06
2023-02-13T05:06:53.130Z,7.14
2023-02-13T05:09:20.003Z,7.22
2023-02-13T05:11:46.896Z,7.27
2023-02-13T05:14:13.955Z,7.33
2023-02-13T05:16:40.722Z,7.34
2023-02-13T05:19:07.489Z,7.33
2023-02-13T05:21:52.722Z,7.31
2023-02-13T05:24:20.613Z,7.24
2023-02-13T05:26:47.446Z,7.22
2023-02-13T05:29:20.266Z,7.18
2023-02-13T05:31:48.285Z,7.14
2023-02-13T05:34:15.360Z,7.12
2023-02-13T05:36:42.644Z,7.11
2023-02-13T05:39:09.550Z,7.11
2023-02-13T05:41:36.429Z,7.08
2023-02-13T05:44:03.567Z,7.05
2023-02-13T05:46:30.374Z,7.02
2023-02-13T05:48:57.137Z,7.01
2023-02-13T05:51:24.050Z,7.01
2023-02-13T05:53:50.887Z,7.01
2023-02-13T05:56:17.875Z,7.00
2023-02-13T05:58:45.591Z,7.00
2023-02-13T06:01:13.171Z,6.97
2023-02-13T06:03:40.564Z,6.97
2023-02-13T06:06:07.702Z,6.99
2023-02-13T06:08:34.465Z,6.97
2023-02-13T06:11:01.670Z,6.92
2023-02-13T06:13:28.788Z,6.90
2023-02-13T06:15:55.582Z,6.90
2023-02-13T06:18:22.735Z,6.86
2023-02-13T06:20:49.675Z,6.86
2023-02-13T06:23:16.750Z,6.85
2023-02-13T06:25:45.272Z,6.84
2023-02-13T06:28:12.219Z,6.81
2023-02-13T06:30:39.058Z,6.80
2023-02-13T06:33:05.718Z,6.79
2023-02-13T06:35:32.669Z,6.76
2023-02-13T06:37:59.384Z,6.78
2023-02-13T06:40:26.213Z,6.77
2023-02-13T06:42:53.086Z,6.77
2023-02-13T06:45:19.784Z,6.75
2023-02-13T06:47:48.767Z,6.75
2023-02-13T06:50:17.652Z,6.73
2023-02-13T06:52:51.902Z,6.75
2023-02-13T06:55:19.260Z,6.73
2023-02-13T06:57:46.873Z,6.74
2023-02-13T07:00:16.449Z,6.74
2023-02-13T07:02:45.542Z,6.73
2023-02-13T07:05:12.649Z,6.74
2023-02-13T07:07:41.522Z,6.73
2023-02-13T07:10:11.356Z,6.73
2023-02-13T07:12:38.372Z,6.72
2023-02-13T07:15:05.970Z,6.71
2023-02-13T07:17:34.273Z,6.72
2023-02-13T07:20:01.179Z,6.71
2023-02-13T07:22:27.953Z,6.73
2023-02-13T07:24:54.900Z,6.73
2023-02-13T07:27:21.579Z,6.70
2023-02-13T07:29:48.282Z,6.69
2023-02-13T07:32:15.457Z,6.68
2023-02-13T07:34:52.374Z,6.67
2023-02-13T07:37:22.813Z,6.64
2023-02-13T07:39:49.482Z,6.64
2023-02-13T07:42:16.200Z,6.61
2023-02-13T07:44:42.985Z,6.62
2023-02-13T07:47:10.257Z,6.60
2023-02-13T07:49:37.458Z,6.59
2023-02-13T07:52:05.703Z,6.57
2023-02-13T07:54:32.867Z,6.57
2023-02-13T07:56:59.724Z,6.57
2023-02-13T07:59:26.589Z,6.58
2023-02-13T08:01:53.286Z,6.61
2023-02-13T08:04:20.014Z,6.64
2023-02-13T08:06:49.746Z,6.67
2023-02-13T08:09:40.962Z,6.70
2023-02-13T08:12:11.866Z,6.72
2023-02-13T08:14:38.519Z,6.74
2023-02-13T08:17:05.180Z,6.78
2023-02-13T08:19:32.150Z,6.80
2023-02-13T08:21:58.960Z,6.81
2023-02-13T08:24:25.682Z,6.81
2023-02-13T08:26:53.295Z,6.82
2023-02-13T08:29:20.302Z,6.80
2023-02-13T08:31:47.166Z,6.82
2023-02-13T08:34:14.200Z,6.83
2023-02-13T08:36:40.837Z,6.85
2023-02-13T08:39:09.662Z,6.87
2023-02-13T08:41:36.993Z,6.91
2023-02-13T08:44:03.720Z,6.95
2023-02-13T08:46:30.508Z,7.00
2023-02-13T08:48:57.457Z,7.07
2023-02-13T08:51:24.164Z,7.13
2023-02-13T08:53:50.873Z,7.21
2023-02-13T08:56:17.745Z,7.28
2023-02-13T08:58:44.482Z,7.35
2023-02-13T09:01:15.118Z,7.42
2023-02-13T09:03:42.211Z,7.44
2023-02-13T09:06:08.945Z,7.49
2023-02-13T09:08:36.315Z,7.57
2023-02-13T09:11:04.587Z,7.60
2023-02-13T09:13:35.517Z,7.61
2023-02-13T09:16:05.999Z,7.61
2023-02-13T09:18:33.899Z,7.70
2023-02-13T09:21:02.499Z,7.84
2023-02-13T09:23:34.378Z,8.06
2023-02-13T09:26:05.949Z,8.26
2023-02-13T09:28:34.578Z,8.37
2023-02-13T09:31:09.112Z,8.50
2023-02-13T09:33:36.701Z,8.63
2023-02-13T09:36:14.849Z,8.75
2023-02-13T09:38:44.363Z,8.87
2023-02-13T09:41:23.064Z,8.98
2023-02-13T09:44:11.327Z,9.11
2023-02-13T09:46:40.050Z,9.22
2023-02-13T09:49:16.822Z,9.36
2023-02-13T09:51:45.561Z,9.51
2023-02-13T09:54:19.195Z,9.72
2023-02-13T09:57:05.534Z,9.96
2023-02-13T09:59:58.635Z,10.14
2023-02-13T10:02:43.387Z,10.21
2023-02-13T10:05:40.030Z,10.36
2023-02-13T10:08:21.670Z,10.46
2023-02-13T10:11:26.242Z,10.52
2023-02-13T10:13:58.868Z,10.62
2023-02-13T10:16:44.547Z,10.68
2023-02-13T10:19:40.468Z,10.76
2023-02-13T10:22:09.883Z,10.76
2023-02-13T10:25:03.744Z,10.70
2023-02-13T10:27:41.464Z,10.67
2023-02-13T10:30:14.691Z,10.55
2023-02-13T10:33:18.453Z,10.53
2023-02-13T10:36:05.192Z,10.52
2023-02-13T10:38:34.946Z,10.54
2023-02-13T10:41:43.278Z,10.50
2023-02-13T10:44:33.027Z,10.47
2023-02-13T10:47:54.306Z,10.48
2023-02-13T10:50:37.485Z,10.46
2023-02-13T10:53:10.207Z,10.41
2023-02-13T10:56:10.614Z,10.49
2023-02-13T10:58:55.964Z,10.44
2023-02-13T11:01:31.367Z,10.37
2023-02-13T11:04:08.373Z,10.30
2023-02-13T11:06:38.072Z,10.22
2023-02-13T11:09:07.965Z,10.14
2023-02-13T11:11:36.039Z,10.07
2023-02-13T11:14:54.062Z,9.98
2023-02-13T11:17:21.023Z,9.86
2023-02-13T11:19:57.718Z,9.73
2023-02-13T11:22:38.266Z,9.57
2023-02-13T11:25:26.200Z,9.41
2023-02-13T11:28:08.330Z,9.32
2023-02-13T11:30:37.727Z,9.27
2023-02-13T11:33:26.370Z,9.21
2023-02-13T11:36:07.037Z,9.18
2023-02-13T11:38:34.040Z,9.24
2023-02-13T11:41:08.543Z,9.53
2023-02-13T11:43:48.062Z,9.87
2023-02-13T11:46:20.500Z,10.05
2023-02-13T11:49:00.908Z,10.17
2023-02-13T11:51:46.061Z,10.20
2023-02-13T11:54:28.087Z,10.13
2023-02-13T11:57:04.888Z,10.07
2023-02-13T11:59:39.428Z,9.99
2023-02-13T12:02:18.933Z,9.98
2023-02-13T12:04:47.224Z,9.97
2023-02-13T12:07:19.336Z,9.99
2023-02-13T12:09:51.376Z,10.09
2023-02-13T12:12:53.912Z,10.32
2023-02-13T12:15:35.435Z,10.73
2023-02-13T12:18:23.410Z,11.12
2023-02-13T12:21:02.911Z,11.00
2023-02-13T12:23:48.705Z,10.99
2023-02-13T12:26:24.563Z,11.09
2023-02-13T12:29:15.914Z,11.34
2023-02-13T12:32:05.002Z,11.39
2023-02-13T12:34:54.447Z,11.36
2023-02-13T12:37:56.771Z,11.34
2023-02-13T12:40:44.569Z,11.22
2023-02-13T12:43:18.804Z,11.32
2023-02-13T12:46:14.536Z,11.46
2023-02-13T12:48:52.774Z,11.61
2023-02-13T12:51:35.111Z,11.66
2023-02-13T12:54:37.195Z,11.84
2023-02-13T12:57:13.947Z,12.24
2023-02-13T13:00:19.662Z,12.18
2023-02-13T13:03:31.597Z,12.01
2023-02-13T13:06:12.538Z,11.91
2023-02-13T13:09:33.288Z,11.89
2023-02-13T13:12:05.988Z,11.95
2023-02-13T13:14:41.892Z,12.11
2023-02-13T13:17:20.846Z,12.27
2023-02-13T13:20:02.828Z,12.36
2023-02-13T13:22:39.553Z,12.45
2023-02-13T13:25:40.141Z,12.53
2023-02-13T13:28:35.596Z,13.04
2023-02-13T13:31:04.096Z,13.73
2023-02-13T13:33:33.294Z,13.99
2023-02-13T13:36:34.037Z,13.77
2023-02-13T13:39:05.345Z,13.43
2023-02-13T13:41:56.843Z,13.23
2023-02-13T13:44:41.468Z,13.05
2023-02-13T13:47:24.869Z,12.85
2023-02-13T13:50:00.148Z,12.75
2023-02-13T13:52:37.730Z,12.70
2023-02-13T13:58:49.851Z,12.97
2023-02-13T14:01:32.278Z,13.07
2023-02-13T14:04:04.802Z,13.20
2023-02-13T14:06:40.769Z,13.06
2023-02-13T14:09:10.130Z,13.08
2023-02-13T14:11:47.472Z,13.04
2023-02-13T14:14:29.452Z,13.02
2023-02-13T14:17:02.057Z,12.91
2023-02-13T14:19:46.901Z,12.82
2023-02-13T14:22:19.505Z,12.72
2023-02-13T14:24:54.463Z,12.63
2023-02-13T14:27:33.246Z,12.59
2023-02-13T14:30:03.221Z,12.50
2023-02-13T14:32:41.237Z,12.37
2023-02-13T14:35:23.812Z,12.37
2023-02-13T14:37:59.555Z,12.36
2023-02-13T14:40:49.540Z,12.29
2023-02-13T14:43:35.676Z,12.28
2023-02-13T14:46:35.808Z,12.24
2023-02-13T14:49:30.446Z,12.24
2023-02-13T14:52:00.893Z,12.24
2023-02-13T14:54:40.275Z,12.22
2023-02-13T14:57:15.877Z,12.20
2023-02-13T14:59:49.511Z,12.14
2023-02-13T15:02:16.995Z,12.12
2023-02-13T15:04:49.980Z,12.07
2023-02-13T15:07:23.661Z,12.02
2023-02-13T15:09:54.221Z,11.95
2023-02-13T15:12:33.082Z,11.88
2023-02-13T15:15:05.809Z,11.80
2023-02-13T15:17:40.382Z,11.75
2023-02-13T15:20:13.208Z,11.68
2023-02-13T15:22:41.702Z,11.65
2023-02-13T15:25:09.520Z,11.65
2023-02-13T15:27:43.309Z,11.62
2023-02-13T15:30:18.782Z,11.54
2023-02-13T15:32:45.864Z,11.50
2023-02-13T15:35:31.186Z,11.43
2023-02-13T15:37:58.763Z,11.39
2023-02-13T15:40:32.433Z,11.37
2023-02-13T15:43:01.152Z,11.34
2023-02-13T15:45:30.053Z,11.32
2023-02-13T15:47:57.108Z,11.31
2023-02-13T15:50:36.351Z,11.26
2023-02-13T15:53:10.237Z,11.27
2023-02-13T15:55:38.784Z,11.26
2023-02-13T15:58:05.908Z,11.25
2023-02-13T16:00:36.670Z,11.26
2023-02-13T16:03:09.104Z,11.25
2023-02-13T16:05:41.510Z,11.20
2023-02-13T16:08:38.700Z,11.17
2023-02-13T16:11:24.088Z,11.13
2023-02-13T16:13:59.678Z,11.03
2023-02-13T16:16:28.391Z,10.96
2023-02-13T16:18:55.246Z,10.89
2023-02-13T16:21:24.567Z,10.77
2023-02-13T16:24:07.040Z,10.63
2023-02-13T16:26:36.805Z,10.51
2023-02-13T16:29:09.584Z,10.43
2023-02-13T16:31:36.574Z,10.36
2023-02-13T16:34:14.660Z,10.29
2023-02-13T16:36:41.549Z,10.21
2023-02-13T16:39:32.890Z,10.12
2023-02-13T16:42:37.095Z,10.06
2023-02-13T16:45:24.023Z,9.99
2023-02-13T16:48:02.795Z,9.94
2023-02-13T16:50:29.725Z,9.87
2023-02-13T16:53:02.583Z,9.81
2023-02-13T16:55:31.897Z,9.75
2023-02-13T16:58:05.522Z,9.69
2023-02-13T17:00:32.484Z,9.64
2023-02-13T17:02:59.269Z,9.59
2023-02-13T17:05:29.335Z,9.52
2023-02-13T17:07:58.987Z,9.46
2023-02-13T17:10:34.673Z,9.39
2023-02-13T17:13:09.358Z,9.34
2023-02-13T17:15:36.185Z,9.27
2023-02-13T17:18:03.273Z,9.19
2023-02-13T17:20:32.715Z,9.11
2023-02-13T17:23:01.716Z,9.07
2023-02-13T17:25:35.191Z,9.02
2023-02-13T17:28:11.172Z,8.98
2023-02-13T17:30:37.998Z,8.92
2023-02-13T17:33:20.129Z,8.86
2023-02-13T17:35:47.428Z,8.82
2023-02-13T17:38:14.489Z,8.77
2023-02-13T17:40:42.638Z,8.71
2023-02-13T17:43:11.921Z,8.66
2023-02-13T17:45:38.880Z,8.61
2023-02-13T17:48:05.610Z,8.59
2023-02-13T17:50:33.985Z,8.56
2023-02-13T17:53:06.938Z,8.52
2023-02-13T17:55:34.270Z,8.45
2023-02-13T17:58:01.714Z,8.43
2023-02-13T18:00:33.964Z,8.40
2023-02-13T18:03:01.528Z,8.39
2023-02-13T18:05:28.877Z,8.37
2023-02-13T18:07:55.814Z,8.35
2023-02-13T18:10:27.803Z,8.32
2023-02-13T18:13:04.158Z,8.30
2023-02-13T18:15:49.364Z,8.28
2023-02-13T18:18:16.739Z,8.26
2023-02-13T18:20:44.359Z,8.23
2023-02-13T18:23:11.633Z,8.23
2023-02-13T18:25:39.505Z,8.20
2023-02-13T18:28:06.360Z,8.16
2023-02-13T18:30:33.278Z,8.11
2023-02-13T18:33:00.315Z,8.06
2023-02-13T18:35:27.476Z,8.04
2023-02-13T18:37:54.447Z,8.01
2023-02-13T18:40:21.515Z,7.98
2023-02-13T18:42:51.138Z,7.98
2023-02-13T18:45:18.116Z,7.97
2023-02-13T18:47:44.899Z,7.95
2023-02-13T18:50:11.782Z,7.93
2023-02-13T18:52:38.741Z,7.90
2023-02-13T18:55:07.184Z,7.91
2023-02-13T18:57:34.265Z,7.90
2023-02-13T19:00:01.088Z,7.87
2023-02-13T19:02:27.828Z,7.88
2023-02-13T19:04:54.541Z,7.89
2023-02-13T19:07:21.625Z,7.89
2023-02-13T19:10:48.096Z,7.88
2023-02-13T19:18:08.692Z,7.79
2023-02-13T19:21:40.904Z,7.73
2023-02-13T19:24:14.496Z,7.72
2023-02-13T19:26:42.356Z,7.70
2023-02-13T19:29:11.898Z,7.67
2023-02-13T19:31:41.768Z,7.66
2023-02-13T19:34:09.722Z,7.66
2023-02-13T19:36:38.010Z,7.64
2023-02-13T19:39:09.686Z,7.62
2023-02-13T19:41:39.324Z,7.62
2023-02-13T19:44:09.222Z,7.62
2023-02-13T19:46:38.178Z,7.62
2023-02-13T19:49:06.573Z,7.61
2023-02-13T19:51:36.951Z,7.62
2023-02-13T19:54:07.379Z,7.61
2023-02-13T19:56:38.948Z,7.60
2023-02-13T19:59:11.360Z,7.57
2023-02-13T20:01:42.250Z,7.55
2023-02-13T20:04:12.044Z,7.55
2023-02-13T20:06:40.427Z,7.53
2023-02-13T20:09:10.841Z,7.54
2023-02-13T20:11:42.850Z,7.55
2023-02-13T20:14:15.607Z,7.56
2023-02-13T20:16:46.066Z,7.56
2023-02-13T20:19:15.034Z,7.54
2023-02-13T20:21:43.785Z,7.52
2023-02-13T20:24:14.354Z,7.52
2023-02-13T20:26:43.790Z,7.51
2023-02-13T20:29:11.721Z,7.50
2023-02-13T20:31:43.437Z,7.50
2023-02-13T20:34:13.225Z,7.50
2023-02-13T20:36:40.464Z,7.49
2023-02-13T20:39:10.474Z,7.46
2023-02-13T20:41:39.919Z,7.44
2023-02-13T20:44:12.733Z,7.43
2023-02-13T20:46:43.140Z,7.42
2023-02-13T20:49:12.564Z,7.39
2023-02-13T20:51:42.998Z,7.41
2023-02-13T20:54:13.949Z,7.42
2023-02-13T20:56:43.448Z,7.44
2023-02-13T20:59:11.010Z,7.44
2023-02-13T21:01:42.678Z,7.41
2023-02-13T21:04:11.960Z,7.38
2023-02-13T21:06:41.109Z,7.35
2023-02-13T21:09:12.481Z,7.34
2023-02-13T21:11:43.367Z,7.32
2023-02-13T21:14:15.558Z,7.32
2023-02-13T21:16:44.851Z,7.29
2023-02-13T21:19:17.351Z,7.25
2023-02-13T21:21:47.090Z,7.23
2023-02-13T21:24:18.520Z,7.21
2023-02-13T21:26:47.962Z,7.23
2023-02-13T21:29:14.665Z,7.27
2023-02-13T21:31:46.828Z,7.31
2023-02-13T21:34:14.973Z,7.36
2023-02-13T21:36:43.144Z,7.36
2023-02-13T21:39:15.619Z,7.36
2023-02-13T21:41:44.221Z,7.36
2023-02-13T21:44:15.911Z,7.35
2023-02-13T21:46:46.450Z,7.37
2023-02-13T21:49:19.375Z,7.36
2023-02-13T21:51:47.158Z,7.35
2023-02-13T21:54:16.213Z,7.38
2023-02-13T21:56:45.030Z,7.38
2023-02-13T21:59:18.115Z,7.36
2023-02-13T22:01:48.480Z,7.35
2023-02-13T22:04:18.900Z,7.32
2023-02-13T22:06:50.333Z,7.31
2023-02-13T22:09:21.153Z,7.28
2023-02-13T22:11:51.694Z,7.26
2023-02-13T22:14:23.862Z,7.25
2023-02-13T22:16:52.586Z,7.23
2023-02-13T22:19:21.377Z,7.21
2023-02-13T22:21:50.279Z,7.18
2023-02-13T22:24:18.706Z,7.21
2023-02-13T22:26:52.160Z,7.22
2023-02-13T22:29:23.500Z,7.21
2023-02-13T22:31:59.229Z,7.18
2023-02-13T22:34:27.612Z,7.18
2023-02-13T22:36:59.429Z,7.17
2023-02-13T22:39:27.456Z,7.13
2023-02-13T22:41:58.300Z,7.18
2023-02-13T22:44:27.672Z,7.22
2023-02-13T22:46:56.091Z,7.25
2023-02-13T22:49:24.452Z,7.27
2023-02-13T22:51:56.894Z,7.26
2023-02-13T22:54:26.398Z,7.26
2023-02-13T22:56:56.767Z,7.27
2023-02-13T22:59:24.629Z,7.25
2023-02-13T23:01:57.091Z,7.23
2023-02-13T23:04:24.500Z,7.21
2023-02-13T23:06:56.541Z,7.18
2023-02-13T23:09:27.344Z,7.14
2023-02-13T23:12:15.819Z,7.13
2023-02-13T23:14:49.414Z,7.12
2023-02-13T23:17:36.785Z,7.12
2023-02-13T23:20:06.746Z,7.14
2023-02-13T23:22:35.193Z,7.14
2023-02-13T23:25:03.989Z,7.15
2023-02-13T23:27:33.110Z,7.17
2023-02-13T23:30:03.908Z,7.15
2023-02-13T23:32:31.860Z,7.11
2023-02-13T23:35:03.779Z,7.13
2023-02-13T23:37:33.763Z,7.16
2023-02-13T23:40:03.547Z,7.16
2023-02-13T23:42:30.447Z,7.16
2023-02-13T23:45:00.394Z,7.16
2023-02-13T23:47:30.828Z,7.12
2023-02-13T23:49:58.900Z,7.11
2023-02-13T23:52:27.288Z,7.08
2023-02-13T23:54:56.099Z,7.06
2023-02-13T23:57:26.226Z,7.01
2023-02-13T23:59:54.618Z,7.00
